createdAt,value
2019-02-16T00:01:23.280Z,1.87
2019-02-16T00:03:53.601Z,2.30
2019-02-16T00:06:23.821Z,1.93
2019-02-16T00:09:05.458Z,2.00
2019-02-16T00:14:29.368Z,1.80
2019-02-16T00:16:59.626Z,1.80
2019-02-16T00:19:43.222Z,2.10
2019-02-16T00:22:25.247Z,2.10
2019-02-16T00:28:17.018Z,1.90
2019-02-16T00:33:51.464Z,2.00
2019-02-16T00:36:35.797Z,1.80
2019-02-16T00:39:09.534Z,1.63
2019-02-16T00:41:58.934Z,1.73
2019-02-16T00:44:40.787Z,1.70
2019-02-16T00:47:30.119Z,1.80
2019-02-16T00:53:04.246Z,1.80
2019-02-16T00:55:36.050Z,1.60
2019-02-16T00:58:25.912Z,1.70
2019-02-16T01:00:56.476Z,1.80
2019-02-16T01:03:26.722Z,1.93
2019-02-16T01:06:16.060Z,1.97
2019-02-16T01:08:46.323Z,1.33
2019-02-16T01:11:16.601Z,1.60
2019-02-16T01:13:47.059Z,2.00
2019-02-16T01:16:28.909Z,1.60
2019-02-16T01:19:11.205Z,1.50
2019-02-16T01:21:42.344Z,1.53
2019-02-16T01:27:25.900Z,1.90
2019-02-16T01:29:56.180Z,1.53
2019-02-16T01:32:26.418Z,1.90
2019-02-16T01:35:18.833Z,1.43
2019-02-16T01:37:49.116Z,1.23
2019-02-16T01:40:19.421Z,1.37
2019-02-16T01:43:09.258Z,1.20
2019-02-16T01:45:39.597Z,1.70
2019-02-16T01:48:09.870Z,1.40
2019-02-16T01:50:40.230Z,1.50
2019-02-16T01:53:22.267Z,1.37
2019-02-16T01:56:06.828Z,1.60
2019-02-16T01:58:55.886Z,1.23
2019-02-16T02:01:26.147Z,1.70
2019-02-16T02:04:08.296Z,1.03
2019-02-16T02:06:38.590Z,1.47
2019-02-16T02:09:08.930Z,1.20
2019-02-16T02:11:51.501Z,1.10
2019-02-16T02:14:33.763Z,1.47
2019-02-16T02:17:04.059Z,1.30
2019-02-16T02:19:34.316Z,1.30
2019-02-16T02:22:42.878Z,1.57
2019-02-16T02:25:13.104Z,1.37
2019-02-16T02:27:54.203Z,1.33
2019-02-16T02:30:40.044Z,1.23
2019-02-16T02:33:10.282Z,1.20
2019-02-16T02:35:40.562Z,1.27
2019-02-16T02:38:11.818Z,1.33
2019-02-16T02:41:02.143Z,0.93
2019-02-16T02:43:34.849Z,1.30
2019-02-16T02:46:17.522Z,1.23
2019-02-16T02:48:59.492Z,0.93
2019-02-16T02:51:29.779Z,1.20
2019-02-16T02:54:02.269Z,0.93
2019-02-16T02:56:44.362Z,1.20
2019-02-16T02:59:26.001Z,1.27
2019-02-16T03:01:56.341Z,1.40
2019-02-16T03:07:43.569Z,1.57
2019-02-16T03:10:16.779Z,1.33
2019-02-16T03:12:59.112Z,1.87
2019-02-16T03:21:13.572Z,2.10
2019-02-16T03:24:03.280Z,2.03
2019-02-16T03:27:11.728Z,1.67
2019-02-16T03:30:20.422Z,2.00
2019-02-16T03:33:14.427Z,1.90
2019-02-16T03:36:25.452Z,2.07
2019-02-16T03:39:26.516Z,1.93
2019-02-16T03:41:59.940Z,1.60
2019-02-16T03:44:41.469Z,2.00
2019-02-16T03:47:23.672Z,2.20
2019-02-16T03:49:53.957Z,2.20
2019-02-16T03:52:24.213Z,1.90
2019-02-16T03:55:11.516Z,2.17
2019-02-16T03:57:42.691Z,1.90
2019-02-16T04:00:12.944Z,1.67
2019-02-16T04:03:02.585Z,1.77
2019-02-16T04:05:32.836Z,1.67
2019-02-16T04:08:03.049Z,2.00
2019-02-16T04:10:33.644Z,1.80
2019-02-16T04:13:24.199Z,1.60
2019-02-16T04:15:57.047Z,1.80
2019-02-16T04:18:27.275Z,1.30
2019-02-16T04:21:16.921Z,1.50
2019-02-16T04:23:47.205Z,1.70
2019-02-16T04:26:17.796Z,1.93
2019-02-16T04:28:59.613Z,1.70
2019-02-16T04:31:42.014Z,1.57
2019-02-16T04:37:14.801Z,1.27
2019-02-16T04:39:56.934Z,1.33
2019-02-16T04:42:27.190Z,1.33
2019-02-16T04:44:57.369Z,1.53
2019-02-16T04:47:39.225Z,1.40
2019-02-16T04:50:20.822Z,1.20
2019-02-16T04:52:51.109Z,1.50
2019-02-16T04:55:23.385Z,1.33
2019-02-16T04:58:06.186Z,0.77
2019-02-16T05:00:48.557Z,1.10
2019-02-16T05:03:18.781Z,1.00
2019-02-16T05:05:49.041Z,1.10
2019-02-16T05:08:30.506Z,1.13
2019-02-16T05:11:12.998Z,1.10
2019-02-16T05:16:39.404Z,1.10
2019-02-16T05:19:11.334Z,1.50
2019-02-16T05:22:12.917Z,0.73
2019-02-16T05:24:41.662Z,0.90
2019-02-16T05:27:13.606Z,1.10
2019-02-16T05:29:55.949Z,0.77
2019-02-16T05:35:29.038Z,0.97
2019-02-16T05:38:10.674Z,0.90
2019-02-16T05:40:40.943Z,0.87
2019-02-16T05:43:11.213Z,1.07
2019-02-16T05:46:00.872Z,0.83
2019-02-16T05:48:31.623Z,1.00
2019-02-16T05:51:01.853Z,0.80
2019-02-16T05:53:32.127Z,1.00
2019-02-16T05:56:21.753Z,1.00
2019-02-16T05:58:52.038Z,0.83
2019-02-16T06:01:22.288Z,1.10
2019-02-16T06:03:53.292Z,1.03
2019-02-16T06:06:38.925Z,0.77
2019-02-16T06:09:28.442Z,1.07
2019-02-16T06:11:58.875Z,0.90
2019-02-16T06:14:48.527Z,1.10
2019-02-16T06:17:20.438Z,1.10
2019-02-16T06:19:50.700Z,1.03
2019-02-16T06:22:40.107Z,1.10
2019-02-16T06:25:10.335Z,0.63
2019-02-16T06:27:43.423Z,1.10
2019-02-16T06:30:13.706Z,0.93
2019-02-16T06:32:56.732Z,0.97
2019-02-16T06:35:51.105Z,1.20
2019-02-16T06:38:21.162Z,1.10
2019-02-16T06:40:53.085Z,1.47
2019-02-16T06:43:36.357Z,1.30
2019-02-16T06:46:06.962Z,1.30
2019-02-16T06:48:37.163Z,1.47
2019-02-16T06:51:29.301Z,1.27
2019-02-16T06:53:59.503Z,1.20
2019-02-16T06:56:51.641Z,1.10
2019-02-16T06:59:21.830Z,1.13
2019-02-16T07:01:52.118Z,1.13
2019-02-16T07:04:40.272Z,1.30
2019-02-16T07:07:30.225Z,1.30
2019-02-16T07:10:00.881Z,1.30
2019-02-16T07:12:44.353Z,2.10
2019-02-16T07:15:26.291Z,2.27
2019-02-16T07:18:15.449Z,2.20
2019-02-16T07:20:45.740Z,1.90
2019-02-16T07:23:27.754Z,2.27
2019-02-16T07:25:58.054Z,2.30
2019-02-16T07:28:28.271Z,2.30
2019-02-16T07:31:10.017Z,2.20
2019-02-16T07:33:52.495Z,1.90
2019-02-16T07:36:24.734Z,1.80
2019-02-16T07:38:54.973Z,3.13
2019-02-16T07:41:45.556Z,4.97
2019-02-16T07:44:53.822Z,6.20
2019-02-16T07:47:30.621Z,3.27
2019-02-16T07:50:22.054Z,2.70
2019-02-16T07:53:12.341Z,2.30
2019-02-16T07:56:01.508Z,2.30
2019-02-16T07:58:51.083Z,2.00
2019-02-16T08:01:40.315Z,1.63
2019-02-16T08:04:21.624Z,1.20
2019-02-16T08:10:38.517Z,1.50
2019-02-16T08:17:12.220Z,1.10
2019-02-16T08:20:01.408Z,1.03
2019-02-16T08:23:04.776Z,1.00
2019-02-16T08:25:48.990Z,1.07
2019-02-16T08:31:38.990Z,1.30
2019-02-16T08:34:24.553Z,1.27
2019-02-16T08:37:13.732Z,1.10
2019-02-16T08:43:03.666Z,0.70
2019-02-16T08:46:26.186Z,2.07
2019-02-16T08:49:08.847Z,1.13
2019-02-16T08:51:58.270Z,1.13
2019-02-16T08:57:30.303Z,0.80
2019-02-16T09:00:19.807Z,0.80
2019-02-16T09:03:09.285Z,0.70
2019-02-16T09:06:00.069Z,0.67
2019-02-16T09:11:43.660Z,0.67
2019-02-16T09:14:52.195Z,0.90
2019-02-16T09:17:33.860Z,0.87
2019-02-16T09:20:25.908Z,1.03
2019-02-16T09:23:34.177Z,0.80
2019-02-16T09:29:38.319Z,0.97
2019-02-16T09:35:30.937Z,0.77
2019-02-16T09:38:50.822Z,0.70
2019-02-16T09:41:37.807Z,0.63
2019-02-16T09:44:31.162Z,0.20
2019-02-16T09:47:22.507Z,0.40
2019-02-16T09:50:12.363Z,0.53
2019-02-16T09:52:54.907Z,0.50
2019-02-16T09:58:58.016Z,0.47
2019-02-16T10:07:36.980Z,0.70
2019-02-16T10:10:35.739Z,0.80
2019-02-16T10:13:32.393Z,0.77
2019-02-16T10:16:36.228Z,0.80
2019-02-16T10:19:25.697Z,0.90
2019-02-16T10:22:15.113Z,0.87
2019-02-16T10:25:04.280Z,0.83
2019-02-16T10:31:39.976Z,1.10
2019-02-16T10:34:31.286Z,0.97
2019-02-16T10:37:29.197Z,1.07
2019-02-16T10:40:20.254Z,1.20
2019-02-16T10:43:11.780Z,1.27
2019-02-16T10:46:01.322Z,1.10
2019-02-16T10:48:43.546Z,1.20
2019-02-16T10:52:54.595Z,0.90
2019-02-16T10:54:48.328Z,0.87
2019-02-16T10:57:38.086Z,1.10
2019-02-16T11:00:27.268Z,1.20
2019-02-16T11:03:18.537Z,1.10
2019-02-16T11:06:09.299Z,1.20
2019-02-16T11:12:01.943Z,1.33
2019-02-16T11:14:51.107Z,1.03
2019-02-16T11:20:42.676Z,1.10
2019-02-16T11:23:34.628Z,1.43
2019-02-16T11:26:43.177Z,1.10
2019-02-16T11:29:54.703Z,1.10
2019-02-16T11:32:28.639Z,1.20
2019-02-16T11:38:21.096Z,1.70
2019-02-16T11:41:02.094Z,2.13
2019-02-16T11:47:04.709Z,1.97
2019-02-16T11:49:54.096Z,1.30
2019-02-16T11:52:43.207Z,2.13
2019-02-16T11:55:33.028Z,2.10
2019-02-16T12:01:49.723Z,1.93
2019-02-16T12:04:57.939Z,2.20
2019-02-16T12:11:30.532Z,2.40
2019-02-16T12:14:19.969Z,2.97
2019-02-16T12:17:09.267Z,2.00
2019-02-16T12:19:58.706Z,2.13
2019-02-16T12:23:07.003Z,2.83
2019-02-16T12:26:10.770Z,2.07
2019-02-16T12:29:11.910Z,2.30
2019-02-16T12:32:01.139Z,2.17
2019-02-16T12:35:00.927Z,2.70
2019-02-16T12:38:00.662Z,2.27
2019-02-16T12:40:51.923Z,2.23
2019-02-16T12:43:38.624Z,2.10
2019-02-16T12:46:47.261Z,2.30
2019-02-16T12:49:36.695Z,2.33
2019-02-16T12:52:26.133Z,2.33
2019-02-16T12:55:15.301Z,2.53
2019-02-16T13:01:12.804Z,2.50
2019-02-16T13:07:02.963Z,2.20
2019-02-16T13:10:06.473Z,2.50
2019-02-16T13:12:58.730Z,2.47
2019-02-16T13:15:49.838Z,2.37
2019-02-16T13:19:00.945Z,2.80
2019-02-16T13:22:09.330Z,3.23
2019-02-16T13:24:47.578Z,2.60
2019-02-16T13:27:45.868Z,2.80
2019-02-16T13:30:35.022Z,3.20
2019-02-16T13:33:24.434Z,3.30
2019-02-16T13:42:32.689Z,3.93
2019-02-16T13:45:41.649Z,2.67
2019-02-16T13:48:30.793Z,2.60
2019-02-16T13:51:11.817Z,3.03
2019-02-16T13:54:02.087Z,3.00
2019-02-16T13:56:41.054Z,2.93
2019-02-16T13:59:31.805Z,3.07
2019-02-16T14:08:31.094Z,3.07
2019-02-16T14:11:29.412Z,3.00
2019-02-16T14:14:20.839Z,3.97
2019-02-16T14:20:14.114Z,2.67
2019-02-16T14:22:49.526Z,2.97
2019-02-16T14:25:46.094Z,2.67
2019-02-16T14:28:16.399Z,3.10
2019-02-16T14:31:00.356Z,2.60
2019-02-16T14:36:48.554Z,3.40
2019-02-16T14:39:29.252Z,2.93
2019-02-16T14:42:13.675Z,2.43
2019-02-16T14:45:05.372Z,3.40
2019-02-16T14:47:37.271Z,2.47
2019-02-16T14:50:10.681Z,2.90
2019-02-16T14:53:11.352Z,2.80
2019-02-16T14:55:54.426Z,2.93
2019-02-16T14:58:44.182Z,2.73
2019-02-16T15:01:14.823Z,3.43
2019-02-16T15:03:45.057Z,3.17
2019-02-16T15:06:37.049Z,2.70
2019-02-16T15:09:09.182Z,2.60
2019-02-16T15:12:10.249Z,3.47
2019-02-16T15:14:54.878Z,2.77
2019-02-16T15:17:21.887Z,2.53
2019-02-16T15:20:11.807Z,2.50
2019-02-16T15:25:38.474Z,2.53
2019-02-16T15:28:20.832Z,2.40
2019-02-16T15:30:51.209Z,3.00
2019-02-16T15:33:22.983Z,2.47
2019-02-16T15:36:06.284Z,2.80
2019-02-16T15:41:33.969Z,2.77
2019-02-16T15:44:17.777Z,2.77
2019-02-16T15:49:51.798Z,2.57
2019-02-16T15:52:34.124Z,2.30
2019-02-16T15:58:07.269Z,2.20
2019-02-16T16:00:37.847Z,2.00
2019-02-16T16:03:08.106Z,2.50
2019-02-16T16:05:38.364Z,2.13
2019-02-16T16:08:27.780Z,2.27
2019-02-16T16:11:38.278Z,2.43
2019-02-16T16:17:32.262Z,7.60
2019-02-16T16:20:42.314Z,4.43
2019-02-16T16:23:57.516Z,3.80
2019-02-16T16:26:46.679Z,2.87
2019-02-16T16:29:35.881Z,2.80
2019-02-16T16:32:34.815Z,2.87
2019-02-16T16:35:47.487Z,3.37
2019-02-16T16:38:52.907Z,2.93
2019-02-16T16:41:42.312Z,5.73
2019-02-16T16:44:34.063Z,26.23
2019-02-16T16:47:23.254Z,64.80
2019-02-16T16:50:30.118Z,62.90
2019-02-16T16:53:08.664Z,34.63
2019-02-16T16:56:36.264Z,25.60
2019-02-16T16:59:28.237Z,23.93
2019-02-16T17:05:27.242Z,17.20
2019-02-16T17:08:18.307Z,14.63
2019-02-16T17:11:40.333Z,13.33
2019-02-16T17:14:42.341Z,9.23
2019-02-16T17:17:47.839Z,7.87
2019-02-16T17:21:06.729Z,5.90
2019-02-16T17:23:55.863Z,6.03
2019-02-16T17:26:45.293Z,5.13
2019-02-16T17:29:36.714Z,4.70
2019-02-16T17:32:26.136Z,6.07
2019-02-16T17:38:16.800Z,6.00
2019-02-16T17:41:06.029Z,6.20
2019-02-16T17:50:06.980Z,7.50
2019-02-16T17:52:56.127Z,7.97
2019-02-16T17:58:38.445Z,7.07
2019-02-16T18:01:47.055Z,5.97
2019-02-16T18:04:30.850Z,6.53
2019-02-16T18:07:39.326Z,5.70
2019-02-16T18:10:45.611Z,5.30
2019-02-16T18:29:08.507Z,13.03
2019-02-16T18:31:54.609Z,12.17
2019-02-16T18:35:23.985Z,10.43
2019-02-16T18:38:13.238Z,8.97
2019-02-16T18:41:03.996Z,7.10
2019-02-16T18:43:48.061Z,5.87
2019-02-16T18:46:56.965Z,5.70
2019-02-16T18:49:46.096Z,4.97
2019-02-16T18:52:37.087Z,5.20
2019-02-16T19:02:33.080Z,7.63
2019-02-16T19:05:43.268Z,8.13
2019-02-16T19:08:52.175Z,13.30
2019-02-16T19:11:23.955Z,15.40
2019-02-16T19:20:27.241Z,10.33
2019-02-16T19:35:14.458Z,10.10
2019-02-16T19:38:05.592Z,9.77
2019-02-16T19:41:14.118Z,9.77
2019-02-16T19:44:29.799Z,8.77
2019-02-16T19:47:22.271Z,8.10
2019-02-16T19:50:11.524Z,7.50
2019-02-16T20:02:53.875Z,5.20
2019-02-16T20:09:59.712Z,5.23
2019-02-16T20:13:08.365Z,5.47
2019-02-16T20:16:23.784Z,5.27
2019-02-16T20:22:13.184Z,6.17
2019-02-16T20:31:51.766Z,4.40
2019-02-16T20:35:30.168Z,4.50
2019-02-16T20:41:26.455Z,4.30
2019-02-16T20:44:19.294Z,4.97
2019-02-16T20:47:08.795Z,5.10
2019-02-16T20:49:58.253Z,5.43
2019-02-16T20:52:49.961Z,5.70
2019-02-16T20:55:39.095Z,4.63
2019-02-16T20:58:49.256Z,4.73
2019-02-16T21:01:38.368Z,5.33
2019-02-16T21:04:22.100Z,5.77
2019-02-16T21:07:23.417Z,6.00
2019-02-16T21:10:18.847Z,6.30
2019-02-16T21:13:08.097Z,5.00
2019-02-16T21:16:18.208Z,7.17
2019-02-16T21:19:09.762Z,5.47
2019-02-16T21:24:54.119Z,4.60
2019-02-16T21:27:45.615Z,4.73
2019-02-16T21:31:14.992Z,4.67
2019-02-16T21:37:26.043Z,4.93
2019-02-16T21:43:57.122Z,4.27
2019-02-16T21:46:48.813Z,4.70
2019-02-16T21:56:50.257Z,4.40
2019-02-16T21:59:39.473Z,3.70
2019-02-16T22:03:10.842Z,4.43
2019-02-16T22:12:05.039Z,3.97
2019-02-16T22:14:56.354Z,4.03
2019-02-16T22:20:33.971Z,3.97
2019-02-16T22:23:19.821Z,3.83
2019-02-16T22:28:43.279Z,3.90
2019-02-16T22:31:25.724Z,3.90
2019-02-16T22:34:35.448Z,4.03
2019-02-16T22:40:11.443Z,4.37
2019-02-16T22:43:01.577Z,3.87
2019-02-16T22:45:53.677Z,4.10
2019-02-16T22:48:52.953Z,4.00
2019-02-16T22:51:42.087Z,4.33
2019-02-16T22:54:12.338Z,4.53
2019-02-16T22:57:00.763Z,4.00
2019-02-16T23:08:33.033Z,4.57
2019-02-16T23:11:18.519Z,4.33
2019-02-16T23:14:24.062Z,4.87
2019-02-16T23:19:51.637Z,5.00
2019-02-16T23:28:46.496Z,4.80
2019-02-16T23:31:16.840Z,4.70
2019-02-16T23:33:58.952Z,5.27
2019-02-16T23:36:40.456Z,5.03
2019-02-16T23:39:10.977Z,5.27
2019-02-16T23:42:02.033Z,5.53
2019-02-16T23:44:39.434Z,5.87
2019-02-16T23:47:29.402Z,5.40
2019-02-16T23:50:01.792Z,6.03
2019-02-16T23:52:32.173Z,6.27
2019-02-16T23:55:22.061Z,6.53
